Time;durP1;ratioP1;P1;durP2;ratioP2;P2;SDS_P1;SDS_P2;PMS_P1;PMS_P2;Temp;Humidity;BMP_temperature;BMP_pressure;BME280_temperature;BME280_humidity;BME280_pressure;Samples;Min_cycle;Max_cycle;Signal;HPM_P1;HPM_P2
2022/04/01 00:00:15;;;;;;;12.13;10.70;;;;;;;7.09;100.00;94086.25;5061361;27;105602;-51
2022/04/01 00:02:44;;;;;;;12.27;10.97;;;;;;;7.04;100.00;94090.81;5027907;28;101748;-54
2022/04/01 00:05:12;;;;;;;11.73;10.57;;;;;;;6.99;100.00;94081.06;5027703;28;105013;-53
2022/04/01 00:07:40;;;;;;;12.57;11.27;;;;;;;7.04;100.00;94086.31;5027423;28;105026;-53
2022/04/01 00:10:08;;;;;;;11.97;10.77;;;;;;;7.09;100.00;94086.25;5031065;28;101906;-55
2022/04/01 00:12:39;;;;;;;12.63;11.27;;;;;;;7.14;100.00;94088.06;5027065;28;105638;-54
2022/04/01 00:15:07;;;;;;;12.80;11.43;;;;;;;7.18;100.00;94086.38;5029330;28;101701;-53
2022/04/01 00:17:34;;;;;;;13.03;11.67;;;;;;;7.23;100.00;94086.31;5027569;28;105287;-55
2022/04/01 00:20:05;;;;;;;11.97;10.77;;;;;;;7.28;100.00;94087.06;5027129;28;106179;-55
2022/04/01 00:22:32;;;;;;;12.03;10.83;;;;;;;7.19;100.00;94085.34;5027489;28;101784;-54
2022/04/01 00:25:00;;;;;;;7.20;5.87;;;;;;;6.84;100.00;94086.56;5027574;28;105627;-53
2022/04/01 00:27:27;;;;;;;6.40;5.83;;;;;;;6.79;100.00;94091.13;5027985;28;105264;-54
2022/04/01 00:29:54;;;;;;;4.43;4.03;;;;;;;6.66;100.00;94091.81;5028612;28;101911;-53
2022/04/01 00:32:22;;;;;;;4.30;3.90;;;;;;;6.62;100.00;94093.44;5031205;28;105566;-49
2022/04/01 00:34:50;;;;;;;4.47;4.07;;;;;;;6.63;100.00;94087.06;5062540;27;101800;-50
2022/04/01 00:37:18;;;;;;;4.83;3.70;;;;;;;6.63;100.00;94089.72;5028221;28;104830;-52
2022/04/01 00:39:45;;;;;;;4.80;4.33;;;;;;;6.50;100.00;94095.69;5030419;27;105509;-51
2022/04/01 00:42:12;;;;;;;5.27;4.60;;;;;;;6.47;100.00;94098.88;5031850;28;101938;-53
2022/04/01 00:44:41;;;;;;;4.20;3.80;;;;;;;6.32;100.00;94093.75;5031803;28;105120;-50
2022/04/01 00:47:09;;;;;;;3.87;3.50;;;;;;;6.34;100.00;94099.53;5031212;28;105782;-52
2022/04/01 00:49:37;;;;;;;3.80;3.40;;;;;;;6.30;100.00;94095.88;5031600;28;101656;-50
2022/04/01 00:52:09;;;;;;;3.87;3.57;;;;;;;6.31;100.00;94097.44;5031836;28;105159;-52
2022/04/01 00:54:39;;;;;;;4.60;3.30;;;;;;;6.25;100.00;94094.09;5034087;28;104200;-49
2022/04/01 00:57:10;;;;;;;3.00;2.70;;;;;;;6.25;100.00;94095.94;5031737;28;105583;-54
2022/04/01 00:59:37;;;;;;;3.00;2.80;;;;;;;6.24;100.00;94089.06;5031278;28;105306;-52
2022/04/01 01:02:05;;;;;;;2.60;2.40;;;;;;;6.20;100.00;94088.06;5031671;28;101915;-51
2022/04/01 01:04:33;;;;;;;2.80;2.60;;;;;;;6.12;100.00;94086.81;5031734;28;105634;-49
2022/04/01 01:07:00;;;;;;;2.70;2.50;;;;;;;6.15;100.00;94088.09;5030890;28;104413;-51
2022/04/01 01:09:28;;;;;;;3.00;2.80;;;;;;;6.19;100.00;94086.47;5032636;27;101802;-50
2022/04/01 01:12:03;;;;;;;2.73;2.53;;;;;;;6.14;100.00;94081.25;5031616;28;105065;-52
2022/04/01 01:14:33;;;;;;;2.60;2.40;;;;;;;6.16;100.00;94076.50;5030812;28;105304;-49
2022/04/01 01:17:01;;;;;;;2.10;2.00;;;;;;;6.09;100.00;94083.94;5034855;28;101966;-52
2022/04/01 01:19:29;;;;;;;2.33;2.13;;;;;;;6.02;100.00;94080.84;5030575;28;105482;-51
2022/04/01 01:21:58;;;;;;;3.00;2.70;;;;;;;6.05;100.00;94080.31;5031306;28;101887;-51
2022/04/01 01:24:31;;;;;;;2.23;2.13;;;;;;;5.99;100.00;94076.13;5031092;28;105599;-51
2022/04/01 01:26:58;;;;;;;3.10;2.30;;;;;;;6.03;100.00;94074.50;5031451;28;103134;-54
2022/04/01 01:29:26;;;;;;;2.40;2.20;;;;;;;6.04;100.00;94078.69;5030061;28;101926;-50
2022/04/01 01:31:55;;;;;;;2.77;2.57;;;;;;;6.03;100.00;94072.66;5031055;28;105583;-53
2022/04/01 01:34:22;;;;;;;2.57;2.37;;;;;;;6.10;100.00;94074.97;5030415;28;105372;-52
2022/04/01 01:36:51;;;;;;;4.30;2.50;;;;;;;6.02;100.00;94078.22;5031025;28;101836;-52
2022/04/01 01:39:18;;;;;;;2.53;2.20;;;;;;;6.08;100.00;94074.47;5067948;27;104985;-55
2022/04/01 01:41:47;;;;;;;2.77;2.57;;;;;;;6.21;100.00;94076.47;5031079;28;101893;-54
2022/04/01 01:44:17;;;;;;;2.97;2.67;;;;;;;6.21;100.00;94073.81;5030955;28;104797;-51
2022/04/01 01:46:44;;;;;;;2.90;2.70;;;;;;;6.24;100.00;94076.69;5030105;28;105457;-52
2022/04/01 01:49:12;;;;;;;3.17;2.87;;;;;;;6.27;100.00;94068.19;5030102;28;102404;-49
2022/04/01 01:57:11;;;;;;;3.10;2.80;;;;;;;6.24;100.00;94067.97;5030873;28;101880;-53
2022/04/01 01:59:40;;;;;;;3.40;3.10;;;;;;;6.30;100.00;94077.41;5033970;28;105153;-54
2022/04/01 02:02:08;;;;;;;3.00;2.70;;;;;;;6.41;100.00;94073.59;5030577;28;102025;-54
2022/04/01 02:04:36;;;;;;;2.80;2.50;;;;;;;6.40;100.00;94077.31;5030681;28;105314;-53
2022/04/01 02:07:03;;;;;;;3.33;3.03;;;;;;;6.41;100.00;94086.78;5030025;28;105588;-52
2022/04/01 02:09:31;;;;;;;2.87;2.67;;;;;;;6.36;100.00;94087.63;5030693;28;101935;-52
2022/04/01 02:11:59;;;;;;;3.90;2.80;;;;;;;6.31;100.00;94073.69;5064482;27;105671;-51
2022/04/01 02:14:30;;;;;;;2.50;2.30;;;;;;;6.29;100.00;94074.00;5029683;28;105583;-53
2022/04/01 02:16:57;;;;;;;3.13;2.73;;;;;;;6.08;100.00;94074.47;5030482;28;102062;-52
2022/04/01 02:19:25;;;;;;;1.93;1.83;;;;;;;6.00;100.00;94078.47;5030637;28;105115;-54
2022/04/01 02:21:52;;;;;;;2.67;1.60;;;;;;;6.03;100.00;94072.66;5033238;28;105152;-52
2022/04/01 02:24:21;;;;;;;1.70;1.60;;;;;;;6.05;100.00;94075.03;5030213;28;104879;-51
2022/04/01 02:26:49;;;;;;;1.80;1.50;;;;;;;6.00;100.00;94062.66;5029823;28;105689;-51
2022/04/01 02:29:18;;;;;;;1.67;1.57;;;;;;;6.00;100.00;94067.94;5030391;28;101974;-52
2022/04/01 02:32:09;;;;;;;1.40;1.30;;;;;;;5.86;100.00;94063.59;5031298;28;103160;-52
2022/04/01 02:34:55;;;;;;;1.60;1.50;;;;;;;5.86;100.00;94066.22;5031529;28;102345;-54
2022/04/01 02:37:25;;;;;;;1.60;1.50;;;;;;;5.89;100.00;94070.94;5030299;28;101965;-50
2022/04/01 02:39:55;;;;;;;1.53;1.43;;;;;;;5.92;100.00;94065.09;5030207;28;104787;-53
2022/04/01 02:42:25;;;;;;;1.53;1.50;;;;;;;5.84;100.00;94063.09;5029606;28;105397;-52
2022/04/01 02:44:54;;;;;;;1.53;1.43;;;;;;;5.80;100.00;94062.06;5033502;28;102035;-51
2022/04/01 02:47:24;;;;;;;1.67;1.57;;;;;;;5.79;100.00;94061.22;5029046;28;105531;-50
2022/04/01 02:49:53;;;;;;;1.50;1.40;;;;;;;5.71;100.00;94063.66;5029963;28;102122;-50
2022/04/01 02:52:22;;;;;;;1.33;1.33;;;;;;;5.72;100.00;94066.03;5029939;28;105482;-52
2022/04/01 02:54:52;;;;;;;1.70;1.60;;;;;;;5.64;100.00;94073.75;5029177;28;104958;-51
2022/04/01 02:57:20;;;;;;;1.40;1.40;;;;;;;5.68;100.00;94066.88;5029631;28;102062;-50
2022/04/01 02:59:48;;;;;;;1.80;1.70;;;;;;;5.60;100.00;94076.16;5029838;28;105247;-53
2022/04/01 03:02:17;;;;;;;1.97;1.70;;;;;;;5.60;100.00;94072.72;5062960;27;105240;-50
2022/04/01 03:04:47;;;;;;;1.87;1.77;;;;;;;5.63;100.00;94069.56;5029696;28;101869;-53
2022/04/01 03:07:14;;;;;;;1.63;1.53;;;;;;;5.60;100.00;94072.72;5032635;28;105121;-54
2022/04/01 03:09:43;;;;;;;1.73;1.60;;;;;;;5.61;100.00;94075.09;5029325;28;101930;-51
2022/04/01 03:12:21;;;;;;;1.50;1.50;;;;;;;5.60;100.00;94075.34;5029477;28;105433;-51
2022/04/01 03:14:51;;;;;;;1.70;1.60;;;;;;;5.55;100.00;94078.81;5027293;27;102477;-50
2022/04/01 03:17:31;;;;;;;1.67;1.57;;;;;;;5.50;100.00;94080.69;5027894;27;102228;-51
2022/04/01 03:20:02;;;;;;;1.57;1.53;;;;;;;5.50;100.00;94084.13;5029534;28;105141;-49
2022/04/01 03:22:31;;;;;;;1.43;1.40;;;;;;;5.41;100.00;94077.09;5029020;28;105427;-50
2022/04/01 03:24:59;;;;;;;1.30;1.30;;;;;;;5.36;100.00;94082.41;5029299;28;102189;-54
2022/04/01 03:27:29;;;;;;;1.00;1.00;;;;;;;5.28;100.00;94090.88;5029487;28;105062;-51
2022/04/01 03:29:57;;;;;;;1.43;1.30;;;;;;;5.25;100.00;94091.44;5032146;28;105688;-50
2022/04/01 03:32:26;;;;;;;1.10;1.10;;;;;;;5.18;100.00;94097.00;5029261;28;104882;-52
2022/04/01 03:34:53;;;;;;;1.20;1.20;;;;;;;5.16;100.00;94095.69;5028414;28;104979;-52
2022/04/01 03:37:23;;;;;;;1.30;1.30;;;;;;;5.10;100.00;94087.03;5029345;28;101986;-53
2022/04/01 03:39:51;;;;;;;1.20;1.10;;;;;;;5.02;100.00;94084.19;5029162;28;105214;-51
2022/04/01 03:42:18;;;;;;;1.27;1.23;;;;;;;4.96;100.00;94096.56;5028553;28;106006;-51
2022/04/01 03:44:46;;;;;;;2.37;1.40;;;;;;;5.02;100.00;94089.47;5029065;28;102029;-52
2022/04/01 03:47:51;;;;;;;1.10;1.10;;;;;;;4.95;100.00;94097.63;5028732;28;104016;-50
2022/04/01 03:50:26;;;;;;;1.10;1.10;;;;;;;4.92;100.00;94092.91;5028492;28;105638;-49
2022/04/01 03:53:01;;;;;;;1.00;1.00;;;;;;;4.93;100.00;94098.97;5032590;28;101782;-49
2022/04/01 03:55:31;;;;;;;0.80;0.80;;;;;;;4.97;100.00;94086.84;5028042;28;105350;-48
2022/04/01 03:58:19;;;;;;;0.90;0.90;;;;;;;4.99;100.00;94090.78;5027403;27;101751;-50
2022/04/01 04:01:05;;;;;;;1.50;1.40;;;;;;;4.90;100.00;94102.13;5027511;28;102042;-52
2022/04/01 04:03:34;;;;;;;1.30;1.20;;;;;;;4.88;100.00;94099.00;5028157;28;105536;-51
2022/04/01 04:06:02;;;;;;;1.50;1.40;;;;;;;4.84;100.00;94100.59;5028796;28;101946;-50
2022/04/01 04:08:32;;;;;;;1.40;1.30;;;;;;;4.85;100.00;94099.53;5028910;28;105246;-49
2022/04/01 04:11:00;;;;;;;3.03;1.73;;;;;;;4.85;100.00;94102.19;5028255;28;105388;-52
2022/04/01 04:14:04;;;;;;;1.60;1.50;;;;;;;4.88;100.00;94106.88;5030664;27;103076;-50
2022/04/01 04:16:37;;;;;;;1.73;1.63;;;;;;;4.86;100.00;94109.00;5027821;28;105310;-52
2022/04/01 04:19:09;;;;;;;1.37;1.27;;;;;;;4.84;100.00;94106.66;5030311;28;101749;-49
2022/04/01 04:21:48;;;;;;;3.33;2.10;;;;;;;4.82;100.00;94098.25;5028818;28;105790;-50
2022/04/01 04:24:20;;;;;;;2.60;1.70;;;;;;;4.85;100.00;94107.44;5027775;28;105300;-47
2022/04/01 04:26:51;;;;;;;2.80;1.60;;;;;;;4.80;100.00;94108.22;5028674;28;101879;-47
2022/04/01 04:29:20;;;;;;;1.27;1.20;;;;;;;4.82;100.00;94113.22;5028623;28;104911;-52
2022/04/01 04:32:17;;;;;;;1.50;1.40;;;;;;;4.78;100.00;94106.94;5027979;28;105589;-52
2022/04/01 04:34:48;;;;;;;1.77;1.23;;;;;;;4.83;100.00;94110.34;5029977;27;101736;-52
2022/04/01 04:37:16;;;;;;;1.20;1.20;;;;;;;4.85;100.00;94107.44;5031260;28;105110;-49
2022/04/01 04:39:50;;;;;;;1.30;1.20;;;;;;;4.87;100.00;94105.31;5028542;28;101790;-52
2022/04/01 04:42:19;;;;;;;1.10;1.10;;;;;;;4.88;100.00;94112.16;5028359;28;105089;-53
2022/04/01 04:44:47;;;;;;;1.13;1.13;;;;;;;4.90;100.00;94110.03;5027795;28;104394;-53
2022/04/01 04:47:25;;;;;;;1.40;1.40;;;;;;;4.97;100.00;94116.59;5028134;28;101775;-51
2022/04/01 04:49:56;;;;;;;1.20;1.20;;;;;;;4.90;100.00;94118.72;5028375;28;104824;-51
2022/04/01 04:52:27;;;;;;;1.30;1.30;;;;;;;5.03;100.00;94122.63;5027755;28;105274;-51
2022/04/01 04:54:57;;;;;;;1.40;1.40;;;;;;;5.08;100.00;94128.63;5028149;28;101905;-48
2022/04/01 04:57:29;;;;;;;1.60;1.50;;;;;;;5.08;100.00;94135.78;5028317;28;105219;-53
2022/04/01 04:59:59;;;;;;;1.70;1.60;;;;;;;5.00;100.00;94136.31;5030806;28;106043;-53
2022/04/01 05:02:55;;;;;;;1.93;1.60;;;;;;;4.95;100.00;94136.34;5027893;28;103537;-50
2022/04/01 05:05:28;;;;;;;1.77;1.50;;;;;;;5.07;100.00;94139.47;5029109;28;102588;-53
2022/04/01 05:08:33;;;;;;;1.70;1.60;;;;;;;5.14;100.00;94137.31;5029222;28;101779;-54
2022/04/01 05:11:32;;;;;;;1.70;1.60;;;;;;;5.00;100.00;94139.75;5026555;28;102519;-52
2022/04/01 05:14:01;;;;;;;1.97;1.87;;;;;;;5.11;100.00;94145.75;5028893;27;102497;-50
2022/04/01 05:16:35;;;;;;;1.93;1.83;;;;;;;5.12;100.00;94150.00;5027824;28;101830;-51
2022/04/01 05:19:10;;;;;;;2.07;1.97;;;;;;;4.99;100.00;94150.56;5027969;28;105368;-50
2022/04/01 05:21:49;;;;;;;2.10;2.00;;;;;;;4.89;100.00;94151.38;5027167;28;105105;-52
2022/04/01 05:24:24;;;;;;;1.87;1.77;;;;;;;4.86;100.00;94145.88;5065542;27;101922;-53
2022/04/01 05:26:57;;;;;;;2.00;1.90;;;;;;;4.98;100.00;94146.34;5029998;28;104979;-52
2022/04/01 05:30:12;;;;;;;1.83;1.73;;;;;;;4.97;100.00;94147.41;5025706;27;101923;-50
2022/04/01 05:32:49;;;;;;;1.60;1.50;;;;;;;4.93;100.00;94149.81;5031414;28;104445;-54
2022/04/01 05:35:17;;;;;;;1.70;1.60;;;;;;;4.89;100.00;94151.38;5030568;28;105712;-53
2022/04/01 05:37:45;;;;;;;2.10;1.90;;;;;;;4.78;100.00;94151.69;5031062;28;101682;-52
2022/04/01 05:40:14;;;;;;;4.07;2.10;;;;;;;4.75;100.00;94154.88;5031038;28;105262;-52
2022/04/01 05:42:48;;;;;;;2.90;2.70;;;;;;;4.73;100.00;94160.38;5030431;28;104887;-53
2022/04/01 05:45:49;;;;;;;2.40;2.20;;;;;;;4.68;100.00;94164.88;5030780;28;102225;-53
2022/04/01 05:48:19;;;;;;;2.70;2.50;;;;;;;4.68;100.00;94164.88;5033293;28;103484;-53
2022/04/01 05:50:49;;;;;;;2.30;2.20;;;;;;;4.60;100.00;94157.53;5030962;28;101798;-52
2022/04/01 05:53:19;;;;;;;2.30;2.20;;;;;;;4.69;100.00;94163.84;5030928;28;103942;-51
2022/04/01 05:55:51;;;;;;;2.30;2.03;;;;;;;4.70;100.00;94163.53;5029828;28;105684;-50
2022/04/01 05:58:20;;;;;;;2.20;2.00;;;;;;;4.66;100.00;94167.00;5030668;28;101934;-52
2022/04/01 06:00:59;;;;;;;2.00;1.90;;;;;;;4.66;100.00;94164.34;5030863;28;104598;-53
2022/04/01 06:03:53;;;;;;;2.20;2.10;;;;;;;4.67;100.00;94168.56;5030288;28;104306;-54
2022/04/01 06:06:22;;;;;;;2.37;2.13;;;;;;;4.70;100.00;94163.53;5030492;28;101754;-50
2022/04/01 06:08:58;;;;;;;4.07;2.40;;;;;;;4.72;100.00;94171.19;5030702;28;105431;-50
2022/04/01 06:11:51;;;;;;;4.20;3.07;;;;;;;4.67;100.00;94164.09;5031592;28;101649;-53
2022/04/01 06:14:55;;;;;;;1.70;1.60;;;;;;;4.49;100.00;94166.50;5022373;27;102359;-49
2022/04/01 06:17:52;;;;;;;2.30;2.00;;;;;;;4.48;100.00;94180.72;5028469;28;102270;-51
2022/04/01 06:20:25;;;;;;;1.90;1.80;;;;;;;4.45;100.00;94186.50;5030490;28;102227;-48
2022/04/01 06:22:59;;;;;;;2.57;2.10;;;;;;;4.44;100.00;94190.19;5030415;28;104917;-48
2022/04/01 06:25:31;;;;;;;2.70;2.30;;;;;;;4.41;100.00;94196.78;5029768;28;106136;-51
2022/04/01 06:28:14;;;;;;;3.57;2.53;;;;;;;4.45;100.00;94191.75;5030288;28;101778;-50
2022/04/01 06:30:49;;;;;;;2.17;1.97;;;;;;;4.44;100.00;94190.19;5030259;28;105772;-51
2022/04/01 06:33:26;;;;;;;2.50;2.27;;;;;;;4.46;100.00;94188.06;5032812;28;105595;-55
2022/04/01 06:36:06;;;;;;;1.80;1.70;;;;;;;4.40;100.00;94192.56;5029644;27;104494;-55
2022/04/01 06:38:41;;;;;;;3.07;1.43;;;;;;;4.35;100.00;94197.03;5029636;28;105485;-55
2022/04/01 06:41:15;;;;;;;1.73;1.63;;;;;;;4.33;100.00;94205.22;5030046;28;101784;-55
2022/04/01 06:43:54;;;;;;;2.60;2.30;;;;;;;4.22;100.00;94208.09;5029782;28;105101;-55
2022/04/01 06:46:41;;;;;;;2.30;2.10;;;;;;;4.11;100.00;94223.09;5027983;28;102199;-55
2022/04/01 06:49:16;;;;;;;3.83;2.93;;;;;;;4.11;100.00;94203.91;5029668;28;101920;-54
2022/04/01 06:52:03;;;;;;;2.23;2.03;;;;;;;4.15;100.00;94213.63;5028521;28;102008;-56
2022/04/01 06:54:48;;;;;;;2.50;2.30;;;;;;;4.20;100.00;94211.00;5027987;28;102199;-55
2022/04/01 06:57:18;;;;;;;2.00;1.90;;;;;;;4.14;100.00;94216.53;5034472;27;101923;-55
2022/04/01 07:00:13;;;;;;;2.40;2.20;;;;;;;4.14;100.00;94224.41;5029326;28;105364;-55
2022/04/01 07:02:42;;;;;;;2.63;2.30;;;;;;;4.13;100.00;94213.09;5030863;27;101795;-56
2022/04/01 07:05:12;;;;;;;2.43;2.23;;;;;;;4.13;100.00;94217.56;5031245;28;102705;-55
2022/04/01 07:07:42;;;;;;;2.53;2.23;;;;;;;4.16;100.00;94214.41;5029116;28;104030;-56
2022/04/01 07:10:11;;;;;;;3.17;2.13;;;;;;;4.07;100.00;94216.78;5030947;27;101818;-55
2022/04/01 07:12:38;;;;;;;2.43;2.13;;;;;;;4.07;100.00;94215.97;5029601;28;103648;-54
2022/04/01 07:15:07;;;;;;;4.57;2.67;;;;;;;4.26;100.00;94219.69;5028810;28;106772;-54
2022/04/01 07:17:34;;;;;;;4.30;2.77;;;;;;;4.11;100.00;94217.03;5030985;28;101731;-55
2022/04/01 07:20:03;;;;;;;3.50;2.53;;;;;;;4.18;100.00;94217.56;5015559;28;105601;-55
2022/04/01 07:22:30;;;;;;;2.60;2.40;;;;;;;4.18;100.00;94217.56;5029563;28;101877;-55
2022/04/01 07:24:57;;;;;;;3.57;3.07;;;;;;;4.23;100.00;94217.56;5029361;28;105179;-53
2022/04/01 07:27:24;;;;;;;4.07;2.07;;;;;;;4.09;100.00;94211.28;5028698;28;103976;-55
2022/04/01 07:29:51;;;;;;;1.50;1.40;;;;;;;4.04;100.00;94221.78;5030562;28;102023;-56
2022/04/01 07:32:30;;;;;;;2.00;1.90;;;;;;;4.07;100.00;94215.97;5029383;28;105147;-55
2022/04/01 07:34:58;;;;;;;2.03;1.83;;;;;;;4.26;100.00;94214.41;5028595;28;106031;-55
2022/04/01 07:37:29;;;;;;;2.43;2.00;;;;;;;4.14;100.00;94217.31;5029255;28;101961;-56
2022/04/01 07:39:58;;;;;;;2.30;2.10;;;;;;;4.16;100.00;94219.69;5029175;28;105374;-54
2022/04/01 07:42:26;;;;;;;4.93;2.90;;;;;;;4.20;100.00;94218.09;5031999;28;105190;-56
2022/04/01 07:44:54;;;;;;;3.30;2.03;;;;;;;4.29;100.00;94221.78;5028875;28;103995;-55
2022/04/01 07:47:22;;;;;;;3.37;2.10;;;;;;;4.26;100.00;94225.72;5029911;28;102590;-55
2022/04/01 07:49:51;;;;;;;1.80;1.60;;;;;;;4.22;100.00;94227.31;5028333;28;102055;-56
2022/04/01 07:52:20;;;;;;;1.80;1.47;;;;;;;4.26;100.00;94232.84;5062814;27;105567;-54
2022/04/01 07:54:51;;;;;;;1.60;1.50;;;;;;;4.46;100.00;94232.81;5029296;28;104645;-56
2022/04/01 07:57:19;;;;;;;1.30;1.23;;;;;;;4.42;100.00;94224.66;5029111;28;101758;-55
2022/04/01 07:59:47;;;;;;;1.63;1.10;;;;;;;4.46;100.00;94235.44;5030261;28;102402;-54
2022/04/01 08:02:14;;;;;;;1.50;1.40;;;;;;;4.52;100.00;94226.47;5028326;28;105400;-54
2022/04/01 08:04:43;;;;;;;1.53;1.43;;;;;;;4.36;100.00;94233.59;5032345;28;102067;-55
2022/04/01 08:07:12;;;;;;;1.53;1.50;;;;;;;4.53;100.00;94238.59;5028020;28;104217;-55
2022/04/01 08:09:39;;;;;;;1.33;1.23;;;;;;;4.53;100.00;94238.59;5028577;28;101942;-54
2022/04/01 08:12:09;;;;;;;1.30;1.30;;;;;;;4.58;100.00;94236.75;5028788;28;105913;-56
2022/04/01 08:14:40;;;;;;;1.57;1.07;;;;;;;4.56;100.00;94240.69;5028022;28;105926;-54
2022/04/01 08:17:11;;;;;;;2.33;2.13;;;;;;;4.67;100.00;94247.53;5028715;28;101829;-54
2022/04/01 08:19:38;;;;;;;6.63;5.53;;;;;;;4.63;100.00;94235.97;5028782;28;103606;-56
2022/04/01 08:22:05;;;;;;;2.20;2.10;;;;;;;4.88;100.00;94243.81;5028052;28;103871;-55
2022/04/01 08:24:33;;;;;;;1.10;1.00;;;;;;;4.84;100.00;94243.56;5033384;28;101816;-55
2022/04/01 08:27:00;;;;;;;2.43;2.30;;;;;;;5.01;100.00;94240.59;5027763;28;105131;-56
2022/04/01 08:29:30;;;;;;;1.80;1.70;;;;;;;4.97;100.00;94247.47;5028374;28;101695;-55
2022/04/01 08:31:58;;;;;;;1.80;1.67;;;;;;;5.15;100.00;94254.78;5028383;28;105109;-54
2022/04/01 08:34:25;;;;;;;1.00;1.00;;;;;;;5.12;100.00;94250.06;5027757;28;106873;-55
2022/04/01 08:36:52;;;;;;;1.80;1.70;;;;;;;5.23;100.00;94249.00;5028464;28;101834;-55
2022/04/01 08:39:19;;;;;;;1.53;1.43;;;;;;;5.29;100.00;94255.81;5062194;27;105271;-56
2022/04/01 08:41:46;;;;;;;0.80;0.80;;;;;;;4.93;100.00;94256.97;5027536;28;105400;-56
2022/04/01 08:44:16;;;;;;;0.90;0.90;;;;;;;4.84;100.00;94261.19;5028329;28;101825;-51
2022/04/01 08:46:45;;;;;;;0.87;0.87;;;;;;;4.98;100.00;94256.94;5031144;28;106038;-56
2022/04/01 08:49:12;;;;;;;0.90;0.90;;;;;;;4.87;100.00;94258.03;5027723;28;101878;-56
2022/04/01 08:51:39;;;;;;;0.80;0.80;;;;;;;4.98;100.00;94262.22;5027949;28;105176;-56
2022/04/01 08:54:06;;;;;;;1.43;0.80;;;;;;;4.96;100.00;94261.72;5027714;28;105092;-56
2022/04/01 08:56:33;;;;;;;0.80;0.80;;;;;;;4.98;100.00;94256.94;5027788;28;101978;-55
2022/04/01 08:59:00;;;;;;;0.80;0.80;;;;;;;4.89;100.00;94255.91;5028245;27;105147;-55
2022/04/01 09:01:40;;;;;;;0.87;0.87;;;;;;;4.99;100.00;94261.16;5031184;28;104144;-55
2022/04/01 09:04:20;;;;;;;1.40;1.23;;;;;;;4.85;100.00;94270.69;5031774;28;101910;-56
2022/04/01 09:06:47;;;;;;;0.90;0.90;;;;;;;5.07;100.00;94263.25;5031609;28;105359;-56
2022/04/01 09:09:26;;;;;;;0.70;0.70;;;;;;;5.04;100.00;94266.41;5034441;28;105354;-55
2022/04/01 09:12:12;;;;;;;0.67;0.67;;;;;;;5.07;100.00;94271.16;5031484;28;102806;-54
2022/04/01 09:14:41;;;;;;;0.80;0.80;;;;;;;4.99;100.00;94271.69;5030588;28;105682;-55
2022/04/01 09:17:12;;;;;;;1.57;1.30;;;;;;;4.97;100.00;94279.84;5031205;28;102353;-55
2022/04/01 09:19:40;;;;;;;1.10;1.10;;;;;;;4.95;100.00;94279.34;5031476;28;105560;-54
2022/04/01 09:22:18;;;;;;;6.47;5.90;;;;;;;5.04;100.00;94284.84;5032080;28;102916;-54
2022/04/01 09:24:59;;;;;;;0.63;0.63;;;;;;;5.05;100.00;94273.25;5031387;28;101887;-56
2022/04/01 09:27:42;;;;;;;0.70;0.70;;;;;;;5.06;100.00;94280.09;5032948;28;102356;-56
2022/04/01 09:30:11;;;;;;;1.10;1.10;;;;;;;5.30;100.00;94273.19;5032011;28;103120;-55
2022/04/01 09:32:40;;;;;;;1.43;1.33;;;;;;;5.10;100.00;94281.16;5036357;28;101708;-56
2022/04/01 09:35:11;;;;;;;1.70;0.80;;;;;;;5.04;100.00;94276.94;5030443;28;104346;-55
2022/04/01 09:37:40;;;;;;;0.60;0.60;;;;;;;4.97;100.00;94279.06;5032860;28;101891;-55
2022/04/01 09:40:08;;;;;;;0.93;0.70;;;;;;;4.99;100.00;94277.75;5031209;28;105380;-56
2022/04/01 09:42:35;;;;;;;0.63;0.63;;;;;;;5.20;100.00;94268.75;5030265;28;105365;-54
2022/04/01 09:45:03;;;;;;;0.60;0.60;;;;;;;5.22;100.00;94274.53;5032432;28;101859;-55
2022/04/01 09:47:37;;;;;;;0.60;0.60;;;;;;;5.20;100.00;94274.03;5032112;28;104459;-56
2022/04/01 09:50:13;;;;;;;0.67;0.67;;;;;;;5.46;100.00;94275.50;5031775;28;102591;-54
2022/04/01 09:52:41;;;;;;;1.60;1.60;;;;;;;5.52;100.00;94271.00;5032558;28;101682;-56
2022/04/01 09:55:09;;;;;;;2.70;2.23;;;;;;;5.60;100.00;94268.59;5034884;28;102443;-56
2022/04/01 09:57:37;;;;;;;1.90;1.30;;;;;;;5.75;100.00;94270.38;5032057;28;102095;-54
2022/04/01 10:00:06;;;;;;;2.23;1.23;;;;;;;5.80;100.00;94273.81;5032354;27;102392;-55
2022/04/01 10:02:40;;;;;;;0.90;0.90;;;;;;;5.88;100.00;94272.41;5028301;27;102541;-56
2022/04/01 10:05:08;;;;;;;1.10;1.10;;;;;;;5.98;100.00;94278.44;5031851;28;102268;-55
2022/04/01 10:07:37;;;;;;;0.60;0.60;;;;;;;5.86;100.00;94274.56;5032324;27;102427;-55
2022/04/01 10:10:07;;;;;;;0.70;0.70;;;;;;;5.81;100.00;94280.66;5029974;28;105368;-55
2022/04/01 10:12:45;;;;;;;0.70;0.70;;;;;;;5.68;100.00;94294.38;5029596;27;101897;-54
2022/04/01 10:15:13;;;;;;;1.07;1.07;;;;;;;5.69;100.00;94282.78;5032139;27;102350;-56
2022/04/01 10:17:42;;;;;;;0.70;0.70;;;;;;;5.81;100.00;94291.19;5034889;28;102670;-56
2022/04/01 10:20:13;;;;;;;0.70;0.70;;;;;;;5.63;100.00;94293.63;5030188;28;102888;-55
2022/04/01 10:22:45;;;;;;;0.77;0.77;;;;;;;5.48;100.00;94285.78;5031528;27;103003;-56
2022/04/01 10:25:18;;;;;;;0.90;0.90;;;;;;;5.46;100.00;94282.63;5064529;27;101872;-55
2022/04/01 10:27:49;;;;;;;0.70;0.70;;;;;;;5.60;100.00;94273.88;5032155;27;101739;-55
2022/04/01 10:30:19;;;;;;;0.63;0.63;;;;;;;5.76;100.00;94280.66;5029442;28;103704;-55
2022/04/01 10:32:48;;;;;;;0.70;0.70;;;;;;;5.74;100.00;94287.25;5030159;28;101866;-54
2022/04/01 10:35:27;;;;;;;1.00;1.00;;;;;;;5.79;100.00;94287.22;5030047;28;106835;-54
2022/04/01 10:38:15;;;;;;;0.80;0.80;;;;;;;6.08;100.00;94285.50;5034285;27;103578;-56
2022/04/01 10:40:44;;;;;;;0.77;0.70;;;;;;;5.89;100.00;94284.56;5030159;28;105578;-56
2022/04/01 10:43:13;;;;;;;0.80;0.80;;;;;;;5.87;100.00;94290.13;5030577;27;102734;-54
2022/04/01 10:45:42;;;;;;;1.10;1.10;;;;;;;5.84;100.00;94285.38;5031246;28;101772;-55
2022/04/01 10:54:06;;;;;;;0.80;0.80;;;;;;;5.58;100.00;94301.56;5031210;27;101827;-55
2022/04/01 10:56:37;;;;;;;0.60;0.60;;;;;;;5.62;100.00;94292.06;5030965;27;102522;-55
2022/04/01 10:59:12;;;;;;;1.13;1.13;;;;;;;5.61;100.00;94283.34;5030683;28;102533;-54
2022/04/01 11:01:43;;;;;;;0.80;0.80;;;;;;;5.59;100.00;94301.28;5034940;27;101992;-55
2022/04/01 11:04:26;;;;;;;1.00;1.00;;;;;;;5.72;100.00;94300.69;5030654;27;102607;-56
2022/04/01 11:06:54;;;;;;;0.80;0.80;;;;;;;5.55;100.00;94300.25;5030017;27;101907;-53
2022/04/01 11:09:50;;;;;;;0.87;0.70;;;;;;;5.54;100.00;94311.03;5031262;27;102295;-55
2022/04/01 11:12:27;;;;;;;0.70;0.70;;;;;;;5.64;100.00;94308.38;5030579;28;103033;-54
2022/04/01 11:15:17;;;;;;;1.23;0.83;;;;;;;5.67;100.00;94299.94;5029618;28;102212;-53
2022/04/01 11:18:07;;;;;;;2.30;0.90;;;;;;;5.72;100.00;94308.59;5029517;28;105210;-56
2022/04/01 11:20:37;;;;;;;0.70;0.70;;;;;;;5.62;100.00;94305.22;5028520;28;102730;-55
2022/04/01 11:23:14;;;;;;;0.60;0.60;;;;;;;5.70;100.00;94296.75;5031027;27;102168;-55
2022/04/01 11:25:53;;;;;;;0.70;0.70;;;;;;;5.56;100.00;94307.09;5034037;27;102322;-54
2022/04/01 11:28:20;;;;;;;0.70;0.70;;;;;;;5.77;100.00;94305.16;5029361;28;101795;-55
2022/04/01 11:31:05;;;;;;;0.70;0.70;;;;;;;5.79;100.00;94295.91;5029407;28;105348;-53
2022/04/01 11:33:32;;;;;;;0.80;0.80;;;;;;;5.88;100.00;94312.78;5027233;28;105866;-54
2022/04/01 11:36:00;;;;;;;0.70;0.70;;;;;;;5.79;100.00;94300.41;5030405;28;101843;-56
2022/04/01 11:38:28;;;;;;;0.70;0.70;;;;;;;5.83;100.00;94299.63;5029269;28;103879;-55
2022/04/01 11:41:00;;;;;;;0.80;0.80;;;;;;;5.92;100.00;94307.75;5028589;28;105548;-56
2022/04/01 11:43:29;;;;;;;0.60;0.60;;;;;;;5.94;100.00;94310.91;5028728;28;101786;-56
2022/04/01 11:46:02;;;;;;;0.80;0.80;;;;;;;6.04;100.00;94318.75;5029016;28;105562;-55
2022/04/01 11:48:30;;;;;;;0.60;0.60;;;;;;;5.88;100.00;94311.97;5031116;28;105802;-56
2022/04/01 11:51:01;;;;;;;0.70;0.70;;;;;;;5.98;100.00;94311.94;5030072;28;102044;-56
2022/04/01 11:53:31;;;;;;;0.77;0.77;;;;;;;6.01;100.00;94312.19;5028253;28;105301;-56
2022/04/01 11:56:01;;;;;;;1.87;1.10;;;;;;;6.04;100.00;94310.84;5028579;28;102404;-55
2022/04/01 11:58:36;;;;;;;1.07;1.07;;;;;;;6.15;100.00;94312.38;5030443;28;102813;-55